createdAt,value
2022-12-28T00:07:30.906Z,102404.34
2022-12-28T00:08:21.379Z,102388.94
2022-12-28T00:09:21.587Z,102374.73
2022-12-28T00:11:08.176Z,102361.02
2022-12-28T00:11:25.552Z,102347.88
2022-12-28T00:12:22.822Z,102334.38
2022-12-28T00:13:23.263Z,102321.20
2022-12-28T00:14:23.639Z,102308.39
2022-12-28T00:15:23.788Z,102296.19
2022-12-28T00:16:24.153Z,102284.72
2022-12-28T00:17:24.192Z,102272.73
2022-12-28T00:18:24.757Z,102262.00
2022-12-28T00:19:24.953Z,102251.42
2022-12-28T00:20:25.253Z,102241.16
2022-12-28T00:21:25.701Z,102231.25
2022-12-28T00:22:26.173Z,102222.08
2022-12-28T00:23:28.097Z,102212.65
2022-12-28T00:24:27.779Z,102204.36
2022-12-28T00:25:28.558Z,102195.94
2022-12-28T00:26:29.090Z,102187.50
2022-12-28T00:27:29.555Z,102179.23
2022-12-28T00:28:29.979Z,102172.03
2022-12-28T00:29:30.595Z,102165.08
2022-12-28T00:30:30.992Z,102158.17
2022-12-28T00:30:39.720Z,102061.83
2022-12-28T00:31:40.345Z,102061.41
2022-12-28T00:32:41.083Z,102060.90
2022-12-28T00:33:41.233Z,102060.17
2022-12-28T00:34:41.548Z,102058.91
2022-12-28T00:35:41.738Z,102058.06
2022-12-28T00:37:10.534Z,102057.14
2022-12-28T00:37:42.367Z,102056.55
2022-12-28T00:38:42.734Z,102056.20
2022-12-28T00:39:43.048Z,102055.05
2022-12-28T00:40:43.475Z,102054.63
2022-12-28T00:41:44.083Z,102054.30
2022-12-28T00:42:44.574Z,102052.47
2022-12-28T00:43:45.573Z,102051.97
2022-12-28T00:44:46.376Z,102050.70
2022-12-28T00:45:46.565Z,102050.03
2022-12-28T00:46:47.137Z,102049.44
2022-12-28T00:47:47.874Z,102048.59
2022-12-28T00:48:47.880Z,102047.54
2022-12-28T00:49:48.224Z,102047.03
2022-12-28T00:50:48.668Z,102046.70
2022-12-28T00:51:49.463Z,102046.42
2022-12-28T00:52:49.788Z,102045.34
2022-12-28T00:53:50.647Z,102045.09
2022-12-28T00:54:51.330Z,102043.48
2022-12-28T00:55:51.905Z,102042.57
2022-12-28T00:56:52.353Z,102041.75
2022-12-28T00:57:52.836Z,102041.14
2022-12-28T00:58:53.634Z,102040.56
2022-12-28T00:59:54.567Z,102040.48
2022-12-28T01:00:55.692Z,102040.65
2022-12-28T01:01:04.694Z,102047.59
2022-12-28T01:02:05.173Z,102047.16
2022-12-28T01:03:05.742Z,102046.83
2022-12-28T01:04:06.177Z,102045.73
2022-12-28T01:05:06.186Z,102045.56
2022-12-28T01:06:06.964Z,102045.73
2022-12-28T01:08:43.767Z,102048.24
2022-12-28T01:09:43.944Z,102048.19
2022-12-28T01:10:44.518Z,102047.84
2022-12-28T01:11:44.906Z,102047.34
2022-12-28T01:12:46.074Z,102046.34
2022-12-28T01:13:45.583Z,102045.23
2022-12-28T01:14:46.441Z,102044.41
2022-12-28T01:15:46.680Z,102043.16
2022-12-28T01:16:47.105Z,102041.54
2022-12-28T01:17:47.102Z,102040.13
2022-12-28T01:18:47.430Z,102039.19
2022-12-28T01:19:53.813Z,102038.09
2022-12-28T01:20:48.138Z,102036.86
2022-12-28T01:21:48.171Z,102035.77
2022-12-28T01:22:48.522Z,102034.76
2022-12-28T01:23:48.770Z,102033.49
2022-12-28T01:24:49.651Z,102032.13
2022-12-28T01:25:50.255Z,102031.07
2022-12-28T01:26:50.411Z,102029.71
2022-12-28T01:27:51.130Z,102028.38
2022-12-28T01:28:51.739Z,102027.95
2022-12-28T01:29:51.981Z,102027.77
2022-12-28T01:30:52.564Z,102026.95
2022-12-28T01:31:53.106Z,102026.59
2022-12-28T01:32:53.213Z,102026.61
2022-12-28T01:33:54.536Z,102026.50
2022-12-28T01:34:53.943Z,102026.26
2022-12-28T01:35:54.396Z,102025.69
2022-12-28T01:36:03.577Z,102018.86
2022-12-28T01:37:03.896Z,102018.30
2022-12-28T01:38:04.286Z,102017.80
2022-12-28T01:39:04.801Z,102017.20
2022-12-28T01:40:06.221Z,102017.11
2022-12-28T01:41:05.225Z,102016.97
2022-12-28T01:42:05.888Z,102017.20
2022-12-28T01:43:06.396Z,102017.28
2022-12-28T01:44:07.264Z,102017.86
2022-12-28T01:45:07.889Z,102018.14
2022-12-28T01:46:08.424Z,102018.05
2022-12-28T01:47:08.994Z,102018.21
2022-12-28T01:48:09.304Z,102018.21
2022-12-28T01:49:10.049Z,102018.05
2022-12-28T01:50:10.805Z,102017.71
2022-12-28T01:51:11.285Z,102017.38
2022-12-28T01:52:11.630Z,102016.54
2022-12-28T01:53:11.919Z,102016.13
2022-12-28T01:54:12.193Z,102015.03
2022-12-28T01:55:12.524Z,102014.36
2022-12-28T01:56:13.355Z,102013.02
2022-12-28T01:57:13.779Z,102012.61
2022-12-28T01:58:14.333Z,102011.10
2022-12-28T01:59:14.881Z,102010.48
2022-12-28T02:00:15.394Z,102009.58
2022-12-28T02:01:15.895Z,102009.08
2022-12-28T02:02:16.208Z,102008.49
2022-12-28T02:03:16.631Z,102007.40
2022-12-28T02:04:16.755Z,102007.23
2022-12-28T02:05:17.053Z,102006.73
2022-12-28T02:05:30.151Z,101994.78
2022-12-28T02:06:29.358Z,101994.86
2022-12-28T02:07:29.691Z,101994.69
2022-12-28T02:08:30.657Z,101994.77
2022-12-28T02:09:31.201Z,101994.17
2022-12-28T02:10:43.135Z,101994.17
2022-12-28T02:11:31.940Z,101994.11
2022-12-28T02:12:32.776Z,101994.28
2022-12-28T02:13:33.418Z,101993.69
2022-12-28T02:14:33.757Z,101993.52
2022-12-28T02:15:34.740Z,101993.09
2022-12-28T02:16:35.522Z,101992.16
2022-12-28T02:17:36.268Z,101992.11
2022-12-28T02:18:37.070Z,101991.84
2022-12-28T02:19:37.640Z,101991.33
2022-12-28T02:20:37.746Z,101990.59
2022-12-28T02:21:38.644Z,101989.75
2022-12-28T02:22:39.215Z,101989.35
2022-12-28T02:23:39.635Z,101988.25
2022-12-28T02:24:39.793Z,101986.99
2022-12-28T02:25:41.141Z,101985.34
2022-12-28T02:26:40.482Z,101984.07
2022-12-28T02:27:40.726Z,101982.05
2022-12-28T02:28:41.115Z,101980.31
2022-12-28T02:29:41.190Z,101978.05
2022-12-28T02:30:42.291Z,101976.11
2022-12-28T02:31:41.519Z,101973.84
2022-12-28T02:32:41.620Z,101971.61
2022-12-28T02:33:42.027Z,101969.50
2022-12-28T02:34:42.358Z,101967.66
2022-12-28T02:34:52.999Z,101940.53
2022-12-28T02:35:53.135Z,101939.86
2022-12-28T02:36:53.637Z,101938.43
2022-12-28T02:37:54.420Z,101937.76
2022-12-28T02:38:55.150Z,101938.02
2022-12-28T02:39:55.677Z,101937.52
2022-12-28T02:40:56.464Z,101936.84
2022-12-28T02:41:57.209Z,101936.34
2022-12-28T02:42:57.940Z,101936.77
2022-12-28T02:43:58.378Z,101936.52
2022-12-28T02:44:58.741Z,101936.67
2022-12-28T02:45:59.668Z,101935.93
2022-12-28T02:47:00.291Z,101935.65
2022-12-28T02:48:00.646Z,101935.23
2022-12-28T02:49:00.868Z,101935.16
2022-12-28T02:50:01.194Z,101934.75
2022-12-28T02:51:01.871Z,101933.80
2022-12-28T02:52:02.508Z,101933.66
2022-12-28T02:53:03.429Z,101932.64
2022-12-28T02:54:04.203Z,101932.41
2022-12-28T02:55:04.612Z,101931.96
2022-12-28T02:56:05.346Z,101931.37
2022-12-28T02:57:05.704Z,101930.38
2022-12-28T02:58:06.013Z,101929.97
2022-12-28T02:59:06.581Z,101929.38
2022-12-28T03:00:07.105Z,101929.28
2022-12-28T03:01:07.670Z,101928.86
2022-12-28T03:02:08.422Z,101928.68
2022-12-28T03:03:08.425Z,101928.27
2022-12-28T03:04:09.012Z,101928.45
2022-12-28T03:05:09.663Z,101928.43
2022-12-28T03:05:18.337Z,101927.72
2022-12-28T03:06:19.754Z,101927.45
2022-12-28T03:07:19.374Z,101927.30
2022-12-28T03:08:20.198Z,101926.73
2022-12-28T03:09:20.324Z,101926.23
2022-12-28T03:10:20.465Z,101925.47
2022-12-28T03:11:20.688Z,101924.70
2022-12-28T03:12:20.943Z,101924.14
2022-12-28T03:13:21.728Z,101923.81
2022-12-28T03:14:21.981Z,101922.88
2022-12-28T03:15:22.498Z,101921.95
2022-12-28T03:16:23.888Z,101921.45
2022-12-28T03:17:23.185Z,101921.54
2022-12-28T03:18:24.702Z,101920.44
2022-12-28T03:19:25.222Z,101919.94
2022-12-28T03:20:25.048Z,101919.11
2022-12-28T03:21:25.699Z,101918.78
2022-12-28T03:22:26.526Z,101917.34
2022-12-28T03:23:27.004Z,101916.23
2022-12-28T03:24:27.325Z,101914.41
2022-12-28T03:25:27.859Z,101913.14
2022-12-28T03:26:29.582Z,101911.64
2022-12-28T03:27:29.528Z,101909.86
2022-12-28T03:28:30.094Z,101908.20
2022-12-28T03:29:30.535Z,101906.00
2022-12-28T03:30:30.655Z,101903.91
2022-12-28T03:31:30.879Z,101902.22
2022-12-28T03:31:39.560Z,101876.20
2022-12-28T03:32:40.244Z,101876.70
2022-12-28T03:33:40.732Z,101875.95
2022-12-28T03:34:41.386Z,101875.36
2022-12-28T03:35:41.804Z,101874.02
2022-12-28T03:36:42.356Z,101872.56
2022-12-28T03:37:42.360Z,101870.98
2022-12-28T03:38:43.067Z,101868.85
2022-12-28T03:39:43.710Z,101866.92
2022-12-28T03:40:44.450Z,101864.20
2022-12-28T03:41:45.276Z,101861.00
2022-12-28T03:42:46.164Z,101858.19
2022-12-28T03:43:47.189Z,101855.25
2022-12-28T03:44:47.749Z,101852.27
2022-12-28T03:45:48.214Z,101848.72
2022-12-28T03:46:49.076Z,101845.66
2022-12-28T03:47:49.602Z,101842.45
2022-12-28T03:48:49.781Z,101839.51
2022-12-28T03:49:50.182Z,101836.86
2022-12-28T03:50:50.384Z,101834.16
2022-12-28T03:51:50.479Z,101831.03
2022-12-28T03:52:50.740Z,101827.95
2022-12-28T03:53:50.900Z,101825.17
2022-12-28T03:54:51.036Z,101822.46
2022-12-28T03:55:51.813Z,101818.98
2022-12-28T03:56:52.108Z,101815.52
2022-12-28T03:57:52.385Z,101811.88
2022-12-28T03:58:52.631Z,101808.00
2022-12-28T03:59:52.961Z,101803.58
2022-12-28T04:00:53.260Z,101799.59
2022-12-28T04:01:54.058Z,101795.73
2022-12-28T04:02:02.793Z,101746.70
2022-12-28T04:03:02.807Z,101746.48
2022-12-28T04:04:02.935Z,101745.53
2022-12-28T04:05:03.054Z,101745.03
2022-12-28T04:06:03.637Z,101743.45
2022-12-28T04:07:04.472Z,101742.50
2022-12-28T04:08:04.668Z,101741.09
2022-12-28T04:09:05.199Z,101739.13
2022-12-28T04:10:05.528Z,101737.11
2022-12-28T04:11:05.871Z,101734.91
2022-12-28T04:12:06.774Z,101732.72
2022-12-28T04:13:07.075Z,101730.69
2022-12-28T04:14:10.980Z,101728.13
2022-12-28T04:15:08.078Z,101725.17
2022-12-28T04:16:08.539Z,101722.91
2022-12-28T04:17:08.569Z,101719.92
2022-12-28T04:18:08.810Z,101718.08
2022-12-28T04:19:09.186Z,101715.53
2022-12-28T04:20:09.484Z,101713.14
2022-12-28T04:21:09.979Z,101711.17
2022-12-28T04:22:10.066Z,101708.31
2022-12-28T04:23:10.913Z,101705.85
2022-12-28T04:24:11.287Z,101703.55
2022-12-28T04:25:11.293Z,101701.16
2022-12-28T04:26:11.378Z,101699.48
2022-12-28T04:27:11.507Z,101697.59
2022-12-28T04:28:11.601Z,101695.13
2022-12-28T04:29:12.290Z,101692.86
2022-12-28T04:30:12.677Z,101689.98
2022-12-28T04:31:13.080Z,101688.23
2022-12-28T04:31:21.817Z,101663.30
2022-12-28T04:32:21.905Z,101662.70
2022-12-28T04:33:22.421Z,101662.20
2022-12-28T04:34:22.549Z,101662.03
2022-12-28T04:35:22.747Z,101661.11
2022-12-28T04:36:23.115Z,101660.02
2022-12-28T04:37:23.512Z,101659.09
2022-12-28T04:38:23.905Z,101657.58
2022-12-28T04:39:24.047Z,101656.48
2022-12-28T04:40:24.483Z,101654.30
2022-12-28T04:41:24.850Z,101652.42
2022-12-28T04:42:25.304Z,101649.84
2022-12-28T04:43:25.877Z,101647.29
2022-12-28T04:44:26.497Z,101645.41
2022-12-28T04:45:27.135Z,101643.66
2022-12-28T04:46:27.425Z,101641.97
2022-12-28T04:47:28.011Z,101639.59
2022-12-28T04:48:28.380Z,101637.08
2022-12-28T04:49:28.885Z,101634.95
2022-12-28T04:50:29.361Z,101632.23
2022-12-28T04:51:29.604Z,101630.63
2022-12-28T04:52:29.939Z,101628.61
2022-12-28T04:53:31.215Z,101626.32
2022-12-28T04:54:31.880Z,101624.53
2022-12-28T04:55:31.856Z,101621.69
2022-12-28T04:56:31.298Z,101620.41
2022-12-28T04:57:31.607Z,101618.61
2022-12-28T04:58:31.904Z,101615.82
2022-12-28T04:59:32.397Z,101614.41
2022-12-28T04:59:41.044Z,101592.20
2022-12-28T05:00:41.398Z,101591.47
2022-12-28T05:01:42.094Z,101591.19
2022-12-28T05:02:46.280Z,101589.67
2022-12-28T05:03:42.630Z,101588.75
2022-12-28T05:04:44.049Z,101588.59
2022-12-28T05:05:43.126Z,101587.30
2022-12-28T05:06:43.367Z,101586.64
2022-12-28T05:07:43.474Z,101585.61
2022-12-28T05:08:44.034Z,101584.02
2022-12-28T05:09:44.232Z,101583.32
2022-12-28T05:10:44.618Z,101583.38
2022-12-28T05:11:44.760Z,101583.05
2022-12-28T05:12:45.192Z,101582.78
2022-12-28T05:13:45.772Z,101581.83
2022-12-28T05:14:46.342Z,101580.66
2022-12-28T05:15:46.603Z,101580.39
2022-12-28T05:16:46.793Z,101579.77
2022-12-28T05:17:48.657Z,101578.84
2022-12-28T05:18:48.028Z,101579.27
2022-12-28T05:19:48.412Z,101579.08
2022-12-28T05:20:49.385Z,101578.99
2022-12-28T05:21:49.850Z,101578.32
2022-12-28T05:22:50.515Z,101577.99
2022-12-28T05:23:51.175Z,101577.20
2022-12-28T05:24:52.162Z,101577.05
2022-12-28T05:25:52.926Z,101577.19
2022-12-28T05:26:53.000Z,101576.27
2022-12-28T05:27:53.886Z,101575.73
2022-12-28T05:28:53.969Z,101574.81
2022-12-28T05:29:54.622Z,101573.55
2022-12-28T05:30:03.272Z,101543.02
2022-12-28T05:31:04.241Z,101542.59
2022-12-28T05:32:05.108Z,101543.94
2022-12-28T05:33:05.867Z,101545.55
2022-12-28T05:34:06.832Z,101545.63
2022-12-28T05:35:07.692Z,101546.13
2022-12-28T05:36:08.638Z,101546.13
2022-12-28T05:37:09.408Z,101546.22
2022-12-28T05:38:09.756Z,101547.53
2022-12-28T05:39:10.707Z,101547.87
2022-12-28T05:40:11.166Z,101548.63
2022-12-28T05:41:11.788Z,101549.02
2022-12-28T05:42:11.936Z,101549.53
2022-12-28T05:43:12.265Z,101549.67
2022-12-28T05:44:12.472Z,101550.43
2022-12-28T05:45:12.617Z,101550.18
2022-12-28T05:46:13.115Z,101547.41
2022-12-28T05:47:13.198Z,101546.80
2022-12-28T05:48:13.498Z,101546.55
2022-12-28T05:49:13.543Z,101546.30
2022-12-28T05:50:13.901Z,101545.09
2022-12-28T05:51:15.259Z,101544.76
2022-12-28T05:52:14.976Z,101543.63
2022-12-28T05:53:15.225Z,101544.48
2022-12-28T05:54:15.968Z,101543.78
2022-12-28T05:55:16.522Z,101542.95
2022-12-28T05:56:17.308Z,101543.09
2022-12-28T05:57:18.094Z,101542.93
2022-12-28T05:58:18.733Z,101543.07
2022-12-28T05:58:30.339Z,101546.03
2022-12-28T05:59:30.679Z,101545.44
2022-12-28T06:00:31.321Z,101544.77
2022-12-28T06:01:32.295Z,101544.27
2022-12-28T06:02:33.005Z,101540.91
2022-12-28T06:03:33.480Z,101541.16
2022-12-28T06:04:34.151Z,101540.80
2022-12-28T06:05:34.857Z,101540.20
2022-12-28T06:06:35.272Z,101539.63
2022-12-28T06:07:36.121Z,101539.42
2022-12-28T06:08:36.248Z,101538.08
2022-12-28T06:09:36.868Z,101537.75
2022-12-28T06:10:37.664Z,101537.08
2022-12-28T06:11:38.146Z,101536.66
2022-12-28T06:12:38.152Z,101534.36
2022-12-28T06:13:39.026Z,101533.94
2022-12-28T06:14:39.795Z,101534.28
2022-12-28T06:15:41.709Z,101533.50
2022-12-28T06:16:41.072Z,101532.06
2022-12-28T06:17:41.734Z,101529.02
2022-12-28T06:18:42.448Z,101527.17
2022-12-28T06:19:43.301Z,101525.80
2022-12-28T06:20:44.173Z,101523.86
2022-12-28T06:21:44.777Z,101522.86
2022-12-28T06:22:45.144Z,101521.06
2022-12-28T06:23:45.486Z,101518.97
2022-12-28T06:24:46.444Z,101518.09
2022-12-28T06:25:46.979Z,101516.39
2022-12-28T06:26:47.115Z,101514.38
2022-12-28T06:26:55.742Z,101479.22
2022-12-28T06:27:56.705Z,101479.13
2022-12-28T06:28:57.502Z,101479.22
2022-12-28T06:29:58.478Z,101478.38
2022-12-28T06:31:00.492Z,101477.63
2022-12-28T06:31:59.491Z,101477.34
2022-12-28T06:33:00.173Z,101477.00
2022-12-28T06:34:00.995Z,101476.50
2022-12-28T06:35:01.511Z,101476.67
2022-12-28T06:36:02.359Z,101477.09
2022-12-28T06:37:02.685Z,101476.25
2022-12-28T06:38:03.188Z,101476.64
2022-12-28T06:39:04.090Z,101477.31
2022-12-28T06:40:04.541Z,101477.48
2022-12-28T06:41:14.312Z,101476.42
2022-12-28T06:42:06.035Z,101476.92
2022-12-28T06:43:06.277Z,101476.81
2022-12-28T06:44:06.906Z,101476.64
2022-12-28T06:45:07.173Z,101477.06
2022-12-28T06:46:07.484Z,101477.74
2022-12-28T06:47:07.934Z,101477.57
2022-12-28T06:48:08.787Z,101477.41
2022-12-28T06:49:08.998Z,101477.23
2022-12-28T06:50:09.104Z,101476.73
2022-12-28T06:51:09.255Z,101476.65
2022-12-28T06:52:09.905Z,101476.56
2022-12-28T06:53:10.174Z,101476.73
2022-12-28T06:54:12.184Z,101476.40
2022-12-28T06:55:11.603Z,101475.64
2022-12-28T06:56:11.429Z,101475.64
2022-12-28T06:56:23.048Z,101482.42
2022-12-28T06:57:23.895Z,101481.99
2022-12-28T06:58:24.371Z,101482.42
2022-12-28T06:59:24.762Z,101482.25
2022-12-28T07:00:25.064Z,101481.91
2022-12-28T07:01:25.633Z,101481.49
2022-12-28T07:02:26.158Z,101480.82
2022-12-28T07:03:26.263Z,101480.82
2022-12-28T07:04:26.942Z,101480.82
2022-12-28T07:05:27.862Z,101480.66
2022-12-28T07:06:28.148Z,101480.48
2022-12-28T07:07:29.369Z,101480.20
2022-12-28T07:08:28.816Z,101480.54
2022-12-28T07:09:29.259Z,101480.45
2022-12-28T07:10:30.033Z,101479.11
2022-12-28T07:11:30.169Z,101478.86
2022-12-28T07:12:30.396Z,101478.36
2022-12-28T07:13:31.816Z,101478.36
2022-12-28T07:14:31.181Z,101478.78
2022-12-28T07:15:32.053Z,101479.00
2022-12-28T07:16:53.736Z,101474.73
2022-12-28T07:17:54.320Z,101474.48
2022-12-28T07:18:54.779Z,101475.48
2022-12-28T07:19:55.237Z,101474.89
2022-12-28T07:20:55.586Z,101475.23
2022-12-28T07:21:56.296Z,101474.73
2022-12-28T07:22:57.058Z,101475.48
2022-12-28T07:23:57.270Z,101474.81
2022-12-28T07:24:57.678Z,101475.23
2022-12-28T07:25:57.991Z,101475.13
2022-12-28T07:26:58.162Z,101474.88
2022-12-28T07:27:58.417Z,101474.53
2022-12-28T07:28:59.230Z,101474.45
2022-12-28T07:30:00.172Z,101473.75
2022-12-28T07:31:00.789Z,101473.16
2022-12-28T07:32:00.833Z,101471.73
2022-12-28T07:33:01.698Z,101471.88
2022-12-28T07:34:02.357Z,101470.62
2022-12-28T07:35:02.471Z,101469.02
2022-12-28T07:36:02.715Z,101468.41
2022-12-28T07:37:03.047Z,101468.23
2022-12-28T07:38:03.296Z,101466.22
2022-12-28T07:39:03.453Z,101464.70
2022-12-28T07:40:03.958Z,101464.36
2022-12-28T07:41:04.200Z,101464.11
2022-12-28T07:42:04.979Z,101463.95
2022-12-28T07:43:05.590Z,101463.70
2022-12-28T07:44:06.251Z,101464.45
2022-12-28T07:44:15.897Z,101470.45
2022-12-28T07:45:16.543Z,101470.03
2022-12-28T07:46:17.227Z,101470.48
2022-12-28T07:47:18.055Z,101470.73
2022-12-28T07:48:18.704Z,101470.98
2022-12-28T07:49:19.137Z,101470.56
2022-12-28T07:50:19.957Z,101470.39
2022-12-28T07:51:20.823Z,101469.55
2022-12-28T07:52:21.047Z,101468.29
2022-12-28T07:53:22.261Z,101467.45
2022-12-28T07:54:22.290Z,101465.84
2022-12-28T07:55:22.821Z,101465.00
2022-12-28T07:56:24.362Z,101464.81
2022-12-28T07:57:23.927Z,101464.31
2022-12-28T07:58:24.598Z,101463.30
2022-12-28T07:59:30.781Z,101462.88
2022-12-28T08:00:25.844Z,101461.53
2022-12-28T08:01:26.340Z,101460.02
2022-12-28T08:02:26.315Z,101459.77
2022-12-28T08:03:27.034Z,101459.66
2022-12-28T08:04:27.805Z,101458.48
2022-12-28T08:05:28.415Z,101458.73
2022-12-28T08:06:28.743Z,101457.21
2022-12-28T08:07:28.770Z,101455.62
2022-12-28T08:08:29.503Z,101454.36
2022-12-28T08:09:30.372Z,101452.48
2022-12-28T08:10:31.176Z,101451.81
2022-12-28T08:11:32.063Z,101449.77
2022-12-28T08:12:32.880Z,101448.92
2022-12-28T08:13:33.597Z,101448.64
2022-12-28T08:13:42.258Z,101438.06
2022-12-28T08:14:42.588Z,101436.46
2022-12-28T08:15:42.796Z,101436.13
2022-12-28T08:16:43.002Z,101435.45
2022-12-28T08:17:43.784Z,101434.78
2022-12-28T08:18:44.075Z,101434.86
2022-12-28T08:19:44.484Z,101433.69
2022-12-28T08:20:45.271Z,101433.77
2022-12-28T08:21:45.617Z,101432.64
2022-12-28T08:22:46.494Z,101432.48
2022-12-28T08:23:47.102Z,101432.14
2022-12-28T08:24:47.492Z,101432.14
2022-12-28T08:25:47.673Z,101431.14
2022-12-28T08:26:48.616Z,101431.02
2022-12-28T08:27:49.569Z,101431.20
2022-12-28T08:28:49.638Z,101430.49
2022-12-28T08:29:50.661Z,101430.16
2022-12-28T08:30:49.990Z,101430.08
2022-12-28T08:31:50.400Z,101430.13
2022-12-28T08:32:50.920Z,101429.30
2022-12-28T08:33:51.179Z,101428.76
2022-12-28T08:34:51.677Z,101428.68
2022-12-28T08:35:52.359Z,101428.65
2022-12-28T08:36:52.862Z,101427.56
2022-12-28T08:37:59.193Z,101427.22
2022-12-28T08:38:53.867Z,101426.27
2022-12-28T08:39:54.594Z,101425.27
2022-12-28T08:40:57.544Z,101424.22
2022-12-28T08:41:55.642Z,101424.66
2022-12-28T08:42:08.287Z,101393.37
2022-12-28T08:43:08.375Z,101393.20
2022-12-28T08:44:09.032Z,101394.72
2022-12-28T08:45:09.314Z,101395.80
2022-12-28T08:46:09.928Z,101396.81
2022-12-28T08:47:10.308Z,101398.42
2022-12-28T08:48:10.771Z,101398.92
2022-12-28T08:49:10.896Z,101399.94
2022-12-28T08:50:12.370Z,101400.75
2022-12-28T08:51:12.102Z,101402.27
2022-12-28T08:52:12.579Z,101402.91
2022-12-28T08:53:13.047Z,101403.47
2022-12-28T08:54:13.946Z,101404.57
2022-12-28T08:55:17.213Z,101404.71
2022-12-28T08:56:14.766Z,101405.39
2022-12-28T08:57:15.254Z,101404.34
2022-12-28T08:58:15.601Z,101404.83
2022-12-28T08:59:16.337Z,101404.06
2022-12-28T09:00:16.745Z,101404.48
2022-12-28T09:01:17.470Z,101405.47
2022-12-28T09:02:17.477Z,101405.73
2022-12-28T09:03:18.234Z,101406.15
2022-12-28T09:04:18.766Z,101406.91
2022-12-28T09:05:18.828Z,101406.91
2022-12-28T09:06:19.778Z,101407.13
2022-12-28T09:07:28.837Z,101406.80
2022-12-28T09:08:28.007Z,101406.63
2022-12-28T09:09:21.573Z,101406.71
2022-12-28T09:10:22.579Z,101406.55
2022-12-28T09:11:23.141Z,101406.30
2022-12-28T09:11:31.776Z,101405.07
2022-12-28T09:12:32.563Z,101404.98
2022-12-28T09:13:34.349Z,101405.07
2022-12-28T09:14:34.159Z,101405.23
2022-12-28T09:15:35.235Z,101404.91
2022-12-28T09:16:35.663Z,101404.56
2022-12-28T09:17:35.865Z,101404.88
2022-12-28T09:18:36.675Z,101405.30
2022-12-28T09:19:37.322Z,101406.11
2022-12-28T09:20:40.805Z,101406.53
2022-12-28T09:21:38.187Z,101405.77
2022-12-28T09:22:38.637Z,101406.59
2022-12-28T09:23:39.084Z,101406.00
2022-12-28T09:24:39.882Z,101406.39
2022-12-28T09:25:39.915Z,101406.22
2022-12-28T09:26:39.928Z,101406.70
2022-12-28T09:27:40.134Z,101406.68
2022-12-28T09:28:40.171Z,101406.56
2022-12-28T09:29:40.904Z,101405.86
2022-12-28T09:30:41.643Z,101403.00
2022-12-28T09:31:42.484Z,101403.31
2022-12-28T09:32:42.770Z,101402.70
2022-12-28T09:34:15.413Z,101402.25
2022-12-28T09:34:43.652Z,101402.80
2022-12-28T09:35:44.381Z,101402.14
2022-12-28T09:36:44.908Z,101402.90
2022-12-28T09:37:45.899Z,101403.30
2022-12-28T09:38:46.790Z,101403.34
2022-12-28T09:39:47.426Z,101404.08
2022-12-28T09:40:01.366Z,101424.08
2022-12-28T09:40:57.646Z,101423.16
2022-12-28T09:41:58.443Z,101422.81
2022-12-28T09:42:59.082Z,101421.13
2022-12-28T09:43:59.210Z,101420.41
2022-12-28T09:45:00.072Z,101418.97
2022-12-28T09:46:00.562Z,101418.47
2022-12-28T09:47:01.507Z,101418.12
2022-12-28T09:48:01.456Z,101418.20
2022-12-28T09:49:02.082Z,101417.70
2022-12-28T09:50:02.671Z,101417.95
2022-12-28T09:51:03.011Z,101416.92
2022-12-28T09:52:03.124Z,101417.09
2022-12-28T09:53:03.774Z,101416.64
2022-12-28T09:54:04.408Z,101415.97
2022-12-28T09:55:04.960Z,101415.21
2022-12-28T09:56:06.707Z,101415.18
2022-12-28T09:57:05.998Z,101415.06
2022-12-28T09:58:06.523Z,101414.48
2022-12-28T09:59:08.073Z,101414.53
2022-12-28T10:00:07.775Z,101413.75
2022-12-28T10:01:08.320Z,101414.48
2022-12-28T10:02:08.948Z,101413.36
2022-12-28T10:03:09.136Z,101412.94
2022-12-28T10:04:09.488Z,101412.20
2022-12-28T10:05:10.087Z,101411.34
2022-12-28T10:06:10.867Z,101410.24
2022-12-28T10:07:11.703Z,101410.09
2022-12-28T10:07:21.848Z,101393.97
2022-12-28T10:08:21.598Z,101393.72
2022-12-28T10:09:21.979Z,101392.28
2022-12-28T10:10:22.414Z,101392.06
2022-12-28T10:11:22.687Z,101390.71
2022-12-28T10:12:23.136Z,101390.12
2022-12-28T10:14:24.258Z,101388.30
2022-12-28T10:15:24.927Z,101388.12
2022-12-28T10:16:25.528Z,101387.40
2022-12-28T10:17:25.982Z,101388.41
2022-12-28T10:18:26.419Z,101388.07
2022-12-28T10:19:27.028Z,101387.14
2022-12-28T10:20:27.624Z,101386.13
2022-12-28T10:21:32.526Z,101384.95
2022-12-28T10:22:28.984Z,101385.06
2022-12-28T10:23:29.715Z,101384.47
2022-12-28T10:24:32.083Z,101384.39
2022-12-28T10:25:30.925Z,101384.45
2022-12-28T10:26:31.353Z,101383.77
2022-12-28T10:27:32.303Z,101383.34
2022-12-28T10:28:32.396Z,101383.16
2022-12-28T10:29:33.381Z,101382.05
2022-12-28T10:30:33.703Z,101381.38
2022-12-28T10:31:34.618Z,101381.13
2022-12-28T10:32:35.172Z,101381.09
2022-12-28T10:33:35.849Z,101380.31
2022-12-28T10:34:36.486Z,101379.47
2022-12-28T10:35:37.173Z,101379.02
2022-12-28T10:36:37.260Z,101377.73
2022-12-28T10:36:45.889Z,101362.54
2022-12-28T10:37:46.523Z,101361.78
2022-12-28T10:38:48.542Z,101362.03
2022-12-28T10:39:47.640Z,101362.20
2022-12-28T10:40:47.718Z,101361.87
2022-12-28T10:41:48.171Z,101361.53
2022-12-28T10:42:49.148Z,101361.78
2022-12-28T10:44:08.636Z,101361.36
2022-12-28T10:44:50.434Z,101360.34
2022-12-28T10:45:51.289Z,101360.56
2022-12-28T10:46:51.880Z,101359.98
2022-12-28T10:47:52.595Z,101359.22
2022-12-28T10:48:53.444Z,101359.00
2022-12-28T10:50:35.292Z,101358.07
2022-12-28T10:50:54.508Z,101358.16
2022-12-28T10:51:54.675Z,101357.14
2022-12-28T10:52:55.622Z,101356.69
2022-12-28T10:53:56.542Z,101356.02
2022-12-28T10:55:07.397Z,101355.67
2022-12-28T10:55:57.821Z,101353.99
2022-12-28T10:56:58.134Z,101353.60
2022-12-28T10:58:58.926Z,101352.95
2022-12-28T10:59:59.656Z,101352.37
2022-12-28T11:01:00.781Z,101351.77
2022-12-28T11:02:01.506Z,101350.84
2022-12-28T11:03:01.566Z,101349.84
2022-12-28T11:04:01.404Z,101349.19
2022-12-28T11:05:01.493Z,101348.72
2022-12-28T11:05:12.872Z,101348.59
2022-12-28T11:06:13.024Z,101347.99
2022-12-28T11:07:13.103Z,101347.94
2022-12-28T11:08:13.652Z,101347.69
2022-12-28T11:09:13.880Z,101347.35
2022-12-28T11:10:14.217Z,101346.84
2022-12-28T11:11:14.368Z,101346.63
2022-12-28T11:12:15.254Z,101345.86
2022-12-28T11:13:21.501Z,101344.80
2022-12-28T11:14:15.394Z,101344.33
2022-12-28T11:15:15.487Z,101342.84
2022-12-28T11:16:15.633Z,101342.50
2022-12-28T11:17:16.018Z,101340.20
2022-12-28T11:18:16.835Z,101338.77
2022-12-28T11:19:17.091Z,101337.28
2022-12-28T11:20:17.246Z,101335.92
2022-12-28T11:21:17.780Z,101333.77
2022-12-28T11:22:18.548Z,101332.75